Kissho — JD3124 — position and weather

sailwx.info

Track history (hours):
 
Tides and Currents Weather Stations Pressure Air Temp Water Temp Dewpoint Dewpoint Depression Visibility Wind Speed Wind Dir Waves Ship Positions

Kissho

Last reported at 2017-Dec-10 06:37 UTC. Time now 2017-Dec-12 20:05 UTC.
Position N 34°18' E 134°30'.

Length 30 m.

Type: Tug. MMSI: 431002115.

Date/timePositionNaut miles runAvg speedWind from/ knotsBaromVisibWave heightAir tempDewpointWater temp
2017-Dec-10 06:37N 34°18' E 134°30'1 7.0
2017-Dec-10 06:29N 34°18' E 134°31'8 6.8
2017-Dec-10 05:21N 34°14' E 134°39'6 3.2
2017-Dec-10 03:23N 34°09' E 134°45'2 5.1
2017-Dec-10 03:00N 34°08' E 134°46'2 4.8
2017-Dec-10 02:30N 34°06' E 134°48'3 4.9
2017-Dec-10 01:57N 34°05' E 134°51'8 4.9
2017-Dec-10 00:23N 33°58' E 134°55'105 4.6
2017-Dec-09 01:21N 34°50' E 136°47'2 7.0
2017-Dec-09 01:00N 34°52' E 136°46'4 7.1
2017-Dec-09 00:31N 34°56' E 136°46'4 7.1
2017-Dec-09 00:00N 34°59' E 136°48'3 6.8
2017-Dec-08 23:31N 35°01' E 136°51'3 6.9
2017-Dec-08 23:01N 35°05' E 136°52'0 0.9
2017-Dec-08 22:30N 35°05' E 136°52'0 0.0
2017-Dec-08 22:00N 35°05' E 136°52'0 0.0
2017-Dec-08 21:30N 35°05' E 136°52'0 0.0
2017-Dec-08 21:00N 35°05' E 136°52'0 0.0
2017-Dec-08 20:30N 35°05' E 136°52'0 0.0
2017-Dec-08 20:00N 35°05' E 136°52'0 0.0
2017-Dec-08 19:30N 35°05' E 136°52'0 0.0
2017-Dec-08 19:00N 35°05' E 136°52'0 0.0
2017-Dec-08 18:30N 35°05' E 136°52'0 0.0
2017-Dec-08 18:00N 35°05' E 136°52'0 0.0
2017-Dec-08 17:30N 35°05' E 136°52'0 0.0
2017-Dec-08 16:54N 35°05' E 136°52'0 0.0
2017-Dec-08 16:30N 35°05' E 136°52'0 0.0
2017-Dec-08 16:00N 35°05' E 136°52'0 0.0
2017-Dec-08 15:30N 35°05' E 136°52'0 0.0
2017-Dec-08 15:00N 35°05' E 136°52'0 0.0
2017-Dec-08 14:24N 35°05' E 136°52'0 0.0
2017-Dec-08 14:00N 35°05' E 136°52'0 0.0
2017-Dec-08 13:30N 35°05' E 136°52'0 0.0
2017-Dec-08 13:00N 35°05' E 136°52'0 0.0
2017-Dec-08 12:30N 35°05' E 136°52'0 0.0
2017-Dec-08 12:00N 35°05' E 136°52'0 0.0
2017-Dec-08 11:30N 35°05' E 136°52'0 0.0
2017-Dec-08 11:00N 35°05' E 136°52'0 0.0
2017-Dec-08 10:30N 35°05' E 136°52'0 0.0
2017-Dec-08 10:00N 35°05' E 136°52'0 0.0
2017-Dec-08 09:24N 35°05' E 136°52'0 0.0
2017-Dec-08 09:00N 35°05' E 136°52'0 0.0
2017-Dec-08 08:24N 35°05' E 136°52'0 0.0
2017-Dec-08 08:00N 35°05' E 136°52'0 0.0
2017-Dec-08 07:30N 35°05' E 136°52'0 0.0
2017-Dec-08 07:00N 35°05' E 136°52'0 0.0
2017-Dec-08 06:30N 35°05' E 136°52'0 0.0
2017-Dec-08 06:00N 35°05' E 136°52'0 0.0
2017-Dec-08 05:30N 35°05' E 136°52'0 0.0
2017-Dec-08 05:00N 35°05' E 136°52'0 0.0
2017-Dec-08 04:27N 35°05' E 136°52'0 0.0
2017-Dec-08 04:00N 35°05' E 136°52'0 0.0
2017-Dec-08 03:30N 35°05' E 136°52'0 0.8
2017-Dec-08 03:00N 35°05' E 136°52'3 6.4
2017-Dec-08 02:30N 35°02' E 136°51'1 2.1
2017-Dec-08 01:58N 35°01' E 136°51'0 0.0
2017-Dec-08 01:28N 35°01' E 136°51'0 0.0
2017-Dec-08 00:58N 35°01' E 136°51'0 0.0
2017-Dec-08 00:28N 35°01' E 136°51'0 0.0
2017-Dec-07 23:58N 35°01' E 136°51'0 0.0
2017-Dec-07 23:28N 35°01' E 136°51'0 0.0
2017-Dec-07 22:58N 35°01' E 136°51'0 0.0
2017-Dec-07 22:28N 35°01' E 136°51'0 0.0
2017-Dec-07 21:58N 35°01' E 136°51'0 0.0
2017-Dec-07 21:28N 35°01' E 136°51'0 0.0
2017-Dec-07 20:58N 35°01' E 136°51'0 0.0
2017-Dec-07 20:28N 35°01' E 136°51'0 0.0
2017-Dec-07 19:58N 35°01' E 136°51'0 0.0
2017-Dec-07 19:28N 35°01' E 136°51'0 0.0
2017-Dec-07 18:58N 35°01' E 136°51'0 0.0
2017-Dec-07 18:28N 35°01' E 136°51'0 0.0
2017-Dec-07 17:58N 35°01' E 136°51'0 0.0
2017-Dec-07 17:28N 35°01' E 136°51'0 0.0
2017-Dec-07 16:58N 35°01' E 136°51'0 0.0
2017-Dec-07 16:28N 35°01' E 136°51'0 0.0
2017-Dec-07 15:58N 35°01' E 136°51'0 0.0
2017-Dec-07 15:28N 35°01' E 136°51'0 0.0
2017-Dec-07 14:58N 35°01' E 136°51'0 0.0
2017-Dec-07 14:28N 35°01' E 136°51'0 0.0
2017-Dec-07 13:58N 35°01' E 136°51'0 0.0
2017-Dec-07 13:28N 35°01' E 136°51'0 0.0
2017-Dec-07 12:58N 35°01' E 136°51'0 0.0
2017-Dec-07 12:28N 35°01' E 136°51'0 0.0
2017-Dec-07 11:58N 35°01' E 136°51'0 0.0
2017-Dec-07 11:28N 35°01' E 136°51'0 0.0
2017-Dec-07 10:58N 35°01' E 136°51'0 0.0
2017-Dec-07 10:28N 35°01' E 136°51'0 0.0
2017-Dec-07 09:58N 35°01' E 136°51'0 0.0
2017-Dec-07 09:28N 35°01' E 136°51'0 0.0
2017-Dec-07 08:58N 35°01' E 136°51'0 0.0
2017-Dec-07 08:28N 35°01' E 136°51'0 0.2
2017-Dec-07 08:00N 35°01' E 136°51'2 4.7
2017-Dec-07 07:30N 35°01' E 136°48'3 6.8
2017-Dec-07 07:00N 34°57' E 136°46'2 4.7
2017-Dec-07 06:30N 34°55' E 136°47'4 7.4
2017-Dec-07 06:00N 34°51' E 136°47'4 7.1
2017-Dec-07 05:29N 34°48' E 136°48'3 7.0
2017-Dec-07 05:00N 34°45' E 136°50'  
2017-Dec-04 10:23N 34°39' E 135°28'0 0.0
2017-Dec-04 09:59N 34°39' E 135°28'0 0.0
2017-Dec-04 09:29N 34°39' E 135°28'0 0.0
2017-Dec-04 08:59N 34°39' E 135°28'0 0.0
2017-Dec-04 08:29N 34°39' E 135°28'0 0.0
2017-Dec-04 07:59N 34°39' E 135°28'0 0.0
2017-Dec-04 07:29N 34°39' E 135°28'0 0.0
2017-Dec-04 06:59N 34°39' E 135°28'0 0.0
2017-Dec-04 06:29N 34°39' E 135°28'0 0.0
2017-Dec-04 05:59N 34°39' E 135°28'0 0.0
2017-Dec-04 05:29N 34°39' E 135°28'0 0.0
2017-Dec-04 04:56N 34°39' E 135°28'0 0.0
2017-Dec-04 04:29N 34°39' E 135°28'0 0.0
2017-Dec-04 03:50N 34°39' E 135°28'0 0.0
2017-Dec-04 03:26N 34°39' E 135°28'0 0.0
2017-Dec-04 02:59N 34°39' E 135°28'0 0.0
2017-Dec-04 02:26N 34°39' E 135°28'0 0.0
2017-Dec-04 01:53N 34°39' E 135°28'0 0.0
2017-Dec-04 01:29N 34°39' E 135°28'0 0.0
2017-Dec-04 00:59N 34°39' E 135°28'0 0.0
2017-Dec-04 00:29N 34°39' E 135°28'0 0.0
2017-Dec-03 23:56N 34°39' E 135°28'0 0.0
2017-Dec-03 23:29N 34°39' E 135°28'0 0.1
2017-Dec-03 22:59N 34°39' E 135°28'0 0.1
2017-Dec-03 22:29N 34°39' E 135°28'0 0.0
2017-Dec-03 21:59N 34°39' E 135°28'0 0.0
2017-Dec-03 21:29N 34°39' E 135°28'0 0.0
2017-Dec-03 20:59N 34°39' E 135°28'0 0.0
2017-Dec-03 20:29N 34°39' E 135°28'0 0.0
2017-Dec-03 19:59N 34°39' E 135°28'0 0.0
2017-Dec-03 19:29N 34°39' E 135°28'0 0.0
2017-Dec-03 18:59N 34°39' E 135°28'0 0.0
2017-Dec-03 18:29N 34°39' E 135°28'0 0.0
2017-Dec-03 17:59N 34°39' E 135°28'0 0.0
2017-Dec-03 17:29N 34°39' E 135°28'0 0.0
2017-Dec-03 16:59N 34°39' E 135°28'0 0.0
2017-Dec-03 16:29N 34°39' E 135°28'0 0.0
2017-Dec-03 15:59N 34°39' E 135°28'0 0.0
2017-Dec-03 15:29N 34°39' E 135°28'0 0.0
2017-Dec-03 14:59N 34°39' E 135°28'0 0.0
2017-Dec-03 14:29N 34°39' E 135°28'0 0.0
2017-Dec-03 13:59N 34°39' E 135°28'0 0.0
2017-Dec-03 13:29N 34°39' E 135°28'0 0.0
2017-Dec-03 12:59N 34°39' E 135°28'0 0.0
2017-Dec-03 12:26N 34°39' E 135°28'0 0.0
2017-Dec-03 11:59N 34°39' E 135°28'0 0.0
2017-Dec-03 11:23N 34°39' E 135°28'0 0.0
2017-Dec-03 10:59N 34°39' E 135°28'0 0.0
2017-Dec-03 10:29N 34°39' E 135°28'0 0.0
2017-Dec-03 09:56N 34°39' E 135°28'0 0.0
2017-Dec-03 09:29N 34°39' E 135°28'0 0.0
2017-Dec-03 08:59N 34°39' E 135°28'0 0.0
2017-Dec-03 08:29N 34°39' E 135°28'0 0.0
2017-Dec-03 07:59N 34°39' E 135°28'0 0.0
2017-Dec-03 07:29N 34°39' E 135°28'0 0.0
2017-Dec-03 06:59N 34°39' E 135°28'0 0.0
2017-Dec-03 06:29N 34°39' E 135°28'0 0.0
2017-Dec-03 05:59N 34°39' E 135°28'0 0.0
2017-Dec-03 05:29N 34°39' E 135°28'0 0.0
2017-Dec-03 04:59N 34°39' E 135°28'0 0.0
2017-Dec-03 04:29N 34°39' E 135°28'0 0.0
2017-Dec-03 03:59N 34°39' E 135°28'0 0.0
2017-Dec-03 03:29N 34°39' E 135°28'0 0.0
2017-Dec-03 02:59N 34°39' E 135°28'0 0.0
2017-Dec-03 02:29N 34°39' E 135°28'0 0.0
2017-Dec-03 01:59N 34°39' E 135°28'0 0.0
2017-Dec-03 01:26N 34°39' E 135°28'0 0.0
2017-Dec-03 00:59N 34°39' E 135°28'0 0.0
2017-Dec-03 00:29N 34°39' E 135°28'0 0.0
2017-Dec-02 23:59N 34°39' E 135°28'0 0.0
2017-Dec-02 23:29N 34°39' E 135°28'0 0.0
2017-Dec-02 22:59N 34°39' E 135°28'0 0.0
2017-Dec-02 22:29N 34°39' E 135°28'0 0.0
2017-Dec-02 21:59N 34°39' E 135°28'0 0.0
2017-Dec-02 21:29N 34°39' E 135°28'0 0.0
2017-Dec-02 20:59N 34°39' E 135°28'0 0.0
2017-Dec-02 20:29N 34°39' E 135°28'0 0.0
2017-Dec-02 19:59N 34°39' E 135°28'0 0.0
2017-Dec-02 19:29N 34°39' E 135°28'0 0.0
2017-Dec-02 18:59N 34°39' E 135°28'0 0.0
2017-Dec-02 18:29N 34°39' E 135°28'0 0.0
2017-Dec-02 17:59N 34°39' E 135°28'0 0.0
2017-Dec-02 17:29N 34°39' E 135°28'0 0.0
2017-Dec-02 16:59N 34°39' E 135°28'0 0.0
2017-Dec-02 16:29N 34°39' E 135°28'0 0.0
2017-Dec-02 15:59N 34°39' E 135°28'0 0.0
2017-Dec-02 15:29N 34°39' E 135°28'0 0.0
2017-Dec-02 14:59N 34°39' E 135°28'0 0.0
2017-Dec-02 14:26N 34°39' E 135°28'0 0.0
2017-Dec-02 13:59N 34°39' E 135°28'0 0.0
2017-Dec-02 13:29N 34°39' E 135°28'0 0.0
2017-Dec-02 12:59N 34°39' E 135°28'0 0.0
2017-Dec-02 12:29N 34°39' E 135°28'0 0.0
2017-Dec-02 11:59N 34°39' E 135°28'0 0.0
2017-Dec-02 11:29N 34°39' E 135°28'0 0.0
2017-Dec-02 10:59N 34°39' E 135°28'0 0.0
2017-Dec-02 10:29N 34°39' E 135°28'0 0.0
2017-Dec-02 09:59N 34°39' E 135°28'0 0.0
2017-Dec-02 09:29N 34°39' E 135°28'0 0.0
2017-Dec-02 08:59N 34°39' E 135°28'0 0.0
2017-Dec-02 08:29N 34°39' E 135°28'0 0.0
2017-Dec-02 07:56N 34°39' E 135°28'0 0.0
2017-Dec-02 07:29N 34°39' E 135°28'0 0.0
2017-Dec-02 06:56N 34°39' E 135°28'0 0.0
2017-Dec-02 06:29N 34°39' E 135°28'0 0.0
2017-Dec-02 05:59N 34°39' E 135°28'0 0.0
2017-Dec-02 05:29N 34°39' E 135°28'0 0.0
2017-Dec-02 04:59N 34°39' E 135°28'0 0.0
2017-Dec-02 04:29N 34°39' E 135°28'0 0.0
2017-Dec-02 03:56N 34°39' E 135°28'0 0.0
2017-Dec-02 03:26N 34°39' E 135°28'0 0.0
2017-Dec-02 02:59N 34°39' E 135°28'0 0.0
2017-Dec-02 02:29N 34°39' E 135°28'0 0.0
2017-Dec-02 01:59N 34°39' E 135°28'0 0.0
2017-Dec-02 01:26N 34°39' E 135°28'0 0.0
2017-Dec-02 00:56N 34°39' E 135°28'0 0.0
2017-Dec-02 00:26N 34°39' E 135°28'0 0.0
2017-Dec-01 23:59N 34°39' E 135°28'0 0.0
2017-Dec-01 23:29N 34°39' E 135°28'0 0.0
2017-Dec-01 22:59N 34°39' E 135°28'0 0.0
2017-Dec-01 22:29N 34°39' E 135°28'0 0.0
2017-Dec-01 21:59N 34°39' E 135°28'0 0.0
2017-Dec-01 21:29N 34°39' E 135°28'0 0.0
2017-Dec-01 20:59N 34°39' E 135°28'0 0.0
2017-Dec-01 20:29N 34°39' E 135°28'0 0.0
2017-Dec-01 19:59N 34°39' E 135°28'0 0.0
2017-Dec-01 19:29N 34°39' E 135°28'0 0.0
2017-Dec-01 18:59N 34°39' E 135°28'0 0.0
2017-Dec-01 18:29N 34°39' E 135°28'0 0.0
2017-Dec-01 17:59N 34°39' E 135°28'0 0.0
2017-Dec-01 17:29N 34°39' E 135°28'0 0.0
2017-Dec-01 16:59N 34°39' E 135°28'0 0.0
2017-Dec-01 16:29N 34°39' E 135°28'0 0.0
2017-Dec-01 15:59N 34°39' E 135°28'0 0.0
2017-Dec-01 15:29N 34°39' E 135°28'0 0.0
2017-Dec-01 14:59N 34°39' E 135°28'0 0.0
2017-Dec-01 14:29N 34°39' E 135°28'0 0.0
2017-Dec-01 13:59N 34°39' E 135°28'0 0.0
2017-Dec-01 13:29N 34°39' E 135°28'0 0.0
2017-Dec-01 12:59N 34°39' E 135°28'0 0.0
2017-Dec-01 12:29N 34°39' E 135°28'0 0.0
2017-Dec-01 11:59N 34°39' E 135°28'0 0.0
2017-Dec-01 11:29N 34°39' E 135°28'0 0.0
2017-Dec-01 10:59N 34°39' E 135°28'0 0.0
2017-Dec-01 10:29N 34°39' E 135°28'0 0.0
2017-Dec-01 09:59N 34°39' E 135°28'0 0.0
2017-Dec-01 09:29N 34°39' E 135°28'0 0.0
2017-Dec-01 08:59N 34°39' E 135°28'0 0.0
2017-Dec-01 08:29N 34°39' E 135°28'0 0.0
2017-Dec-01 07:59N 34°39' E 135°28'0 0.0
2017-Dec-01 07:26N 34°39' E 135°28'0 0.0
2017-Dec-01 06:59N 34°39' E 135°28'0 0.0
2017-Dec-01 06:29N 34°39' E 135°28'0 0.0
2017-Dec-01 05:59N 34°39' E 135°28'0 0.0
2017-Dec-01 05:29N 34°39' E 135°28'0 0.0
2017-Dec-01 04:56N 34°39' E 135°28'0 0.0
2017-Dec-01 04:29N 34°39' E 135°28'0 0.0
2017-Dec-01 03:59N 34°39' E 135°28'0 0.0
2017-Dec-01 03:28N 34°39' E 135°28'0 0.0
2017-Dec-01 02:59N 34°39' E 135°28'0 0.0
2017-Dec-01 02:29N 34°39' E 135°28'0 0.3
2017-Dec-01 02:00N 34°39' E 135°28'1 2.5
2017-Dec-01 01:30N 34°40' E 135°27'0 0.6
2017-Dec-01 01:00N 34°40' E 135°27'0 0.7
2017-Dec-01 00:28N 34°40' E 135°27'0 0.8
2017-Dec-01 00:00N 34°40' E 135°27'0 0.0
2017-Nov-30 23:30N 34°40' E 135°27'0 0.0
2017-Nov-30 23:00N 34°40' E 135°27'0 0.6
2017-Nov-30 22:28N 34°40' E 135°27'0 0.0
2017-Nov-30 21:58N 34°40' E 135°27'2 3.8
2017-Nov-30 21:30N 34°39' E 135°26'1 2.0
2017-Nov-30 20:55N 34°39' E 135°28'0 0.0
2017-Nov-30 20:28N 34°39' E 135°28'0 0.0
2017-Nov-30 19:58N 34°39' E 135°28'0 0.0
2017-Nov-30 19:25N 34°39' E 135°28'0 0.0
2017-Nov-30 18:58N 34°39' E 135°28'0 0.0
2017-Nov-30 18:28N 34°39' E 135°28'0 0.0
2017-Nov-30 17:58N 34°39' E 135°28'0 0.0
2017-Nov-30 17:19N 34°39' E 135°28'0 0.0
2017-Nov-30 16:55N 34°39' E 135°28'0 0.0
2017-Nov-30 16:25N 34°39' E 135°28'0 0.0
2017-Nov-30 15:58N 34°39' E 135°28'0 0.0
2017-Nov-30 15:25N 34°39' E 135°28'0 0.0
2017-Nov-30 14:58N 34°39' E 135°28'0 0.0
2017-Nov-30 14:28N 34°39' E 135°28'0 0.0
2017-Nov-30 13:55N 34°39' E 135°28'0 0.0
2017-Nov-30 13:25N 34°39' E 135°28'0 0.0
2017-Nov-30 12:55N 34°39' E 135°28'0 0.0
2017-Nov-30 12:25N 34°39' E 135°28'0 0.0
2017-Nov-30 11:49N 34°39' E 135°28'0 0.0
2017-Nov-30 11:25N 34°39' E 135°28'0 0.0
2017-Nov-30 10:58N 34°39' E 135°28'0 0.0
2017-Nov-30 10:25N 34°39' E 135°28'0 0.0
2017-Nov-30 09:55N 34°39' E 135°28'0 0.0
2017-Nov-30 09:28N 34°39' E 135°28'0 0.0
2017-Nov-30 08:55N 34°39' E 135°28'0 0.0
2017-Nov-30 08:28N 34°39' E 135°28'0 0.0
2017-Nov-30 07:58N 34°39' E 135°28'0 0.0
2017-Nov-30 07:25N 34°39' E 135°28'0 0.0
2017-Nov-30 06:58N 34°39' E 135°28'  
Track history (hours):
 
Tides and Currents Weather Stations Pressure Air Temp Water Temp Dewpoint Dewpoint Depression Visibility Wind Speed Wind Dir Waves Ship Positions

Kissho

Last reported at 2017-Dec-10 06:37 UTC. Time now 2017-Dec-12 20:05 UTC.
Position N 34°18' E 134°30'.

Length 30 m.

Type: Tug. MMSI: 431002115.

Date/timePositionNaut miles runAvg speedWind from/ knotsBaromVisibWave heightAir tempDewpointWater temp
2017-Dec-10 06:37N 34°18' E 134°30'1 7.0
2017-Dec-10 06:29N 34°18' E 134°31'8 6.8
2017-Dec-10 05:21N 34°14' E 134°39'6 3.2
2017-Dec-10 03:23N 34°09' E 134°45'2 5.1
2017-Dec-10 03:00N 34°08' E 134°46'2 4.8
2017-Dec-10 02:30N 34°06' E 134°48'3 4.9
2017-Dec-10 01:57N 34°05' E 134°51'8 4.9
2017-Dec-10 00:23N 33°58' E 134°55'105 4.6
2017-Dec-09 01:21N 34°50' E 136°47'2 7.0
2017-Dec-09 01:00N 34°52' E 136°46'4 7.1
2017-Dec-09 00:31N 34°56' E 136°46'4 7.1
2017-Dec-09 00:00N 34°59' E 136°48'3 6.8
2017-Dec-08 23:31N 35°01' E 136°51'3 6.9
2017-Dec-08 23:01N 35°05' E 136°52'0 0.9
2017-Dec-08 22:30N 35°05' E 136°52'0 0.0
2017-Dec-08 22:00N 35°05' E 136°52'0 0.0
2017-Dec-08 21:30N 35°05' E 136°52'0 0.0
2017-Dec-08 21:00N 35°05' E 136°52'0 0.0
2017-Dec-08 20:30N 35°05' E 136°52'0 0.0
2017-Dec-08 20:00N 35°05' E 136°52'0 0.0
2017-Dec-08 19:30N 35°05' E 136°52'0 0.0
2017-Dec-08 19:00N 35°05' E 136°52'0 0.0
2017-Dec-08 18:30N 35°05' E 136°52'0 0.0
2017-Dec-08 18:00N 35°05' E 136°52'0 0.0
2017-Dec-08 17:30N 35°05' E 136°52'0 0.0
2017-Dec-08 16:54N 35°05' E 136°52'0 0.0
2017-Dec-08 16:30N 35°05' E 136°52'0 0.0
2017-Dec-08 16:00N 35°05' E 136°52'0 0.0
2017-Dec-08 15:30N 35°05' E 136°52'0 0.0
2017-Dec-08 15:00N 35°05' E 136°52'0 0.0
2017-Dec-08 14:24N 35°05' E 136°52'0 0.0
2017-Dec-08 14:00N 35°05' E 136°52'0 0.0
2017-Dec-08 13:30N 35°05' E 136°52'0 0.0
2017-Dec-08 13:00N 35°05' E 136°52'0 0.0
2017-Dec-08 12:30N 35°05' E 136°52'0 0.0
2017-Dec-08 12:00N 35°05' E 136°52'0 0.0
2017-Dec-08 11:30N 35°05' E 136°52'0 0.0
2017-Dec-08 11:00N 35°05' E 136°52'0 0.0
2017-Dec-08 10:30N 35°05' E 136°52'0 0.0
2017-Dec-08 10:00N 35°05' E 136°52'0 0.0
2017-Dec-08 09:24N 35°05' E 136°52'0 0.0
2017-Dec-08 09:00N 35°05' E 136°52'0 0.0
2017-Dec-08 08:24N 35°05' E 136°52'0 0.0
2017-Dec-08 08:00N 35°05' E 136°52'0 0.0
2017-Dec-08 07:30N 35°05' E 136°52'0 0.0
2017-Dec-08 07:00N 35°05' E 136°52'0 0.0
2017-Dec-08 06:30N 35°05' E 136°52'0 0.0
2017-Dec-08 06:00N 35°05' E 136°52'0 0.0
2017-Dec-08 05:30N 35°05' E 136°52'0 0.0
2017-Dec-08 05:00N 35°05' E 136°52'0 0.0
2017-Dec-08 04:27N 35°05' E 136°52'0 0.0
2017-Dec-08 04:00N 35°05' E 136°52'0 0.0
2017-Dec-08 03:30N 35°05' E 136°52'0 0.8
2017-Dec-08 03:00N 35°05' E 136°52'3 6.4
2017-Dec-08 02:30N 35°02' E 136°51'1 2.1
2017-Dec-08 01:58N 35°01' E 136°51'0 0.0
2017-Dec-08 01:28N 35°01' E 136°51'0 0.0
2017-Dec-08 00:58N 35°01' E 136°51'0 0.0
2017-Dec-08 00:28N 35°01' E 136°51'0 0.0
2017-Dec-07 23:58N 35°01' E 136°51'0 0.0
2017-Dec-07 23:28N 35°01' E 136°51'0 0.0
2017-Dec-07 22:58N 35°01' E 136°51'0 0.0
2017-Dec-07 22:28N 35°01' E 136°51'0 0.0
2017-Dec-07 21:58N 35°01' E 136°51'0 0.0
2017-Dec-07 21:28N 35°01' E 136°51'0 0.0
2017-Dec-07 20:58N 35°01' E 136°51'0 0.0
2017-Dec-07 20:28N 35°01' E 136°51'0 0.0
2017-Dec-07 19:58N 35°01' E 136°51'0 0.0
2017-Dec-07 19:28N 35°01' E 136°51'0 0.0
2017-Dec-07 18:58N 35°01' E 136°51'0 0.0
2017-Dec-07 18:28N 35°01' E 136°51'0 0.0
2017-Dec-07 17:58N 35°01' E 136°51'0 0.0
2017-Dec-07 17:28N 35°01' E 136°51'0 0.0
2017-Dec-07 16:58N 35°01' E 136°51'0 0.0
2017-Dec-07 16:28N 35°01' E 136°51'0 0.0
2017-Dec-07 15:58N 35°01' E 136°51'0 0.0
2017-Dec-07 15:28N 35°01' E 136°51'0 0.0
2017-Dec-07 14:58N 35°01' E 136°51'0 0.0
2017-Dec-07 14:28N 35°01' E 136°51'0 0.0
2017-Dec-07 13:58N 35°01' E 136°51'0 0.0
2017-Dec-07 13:28N 35°01' E 136°51'0 0.0
2017-Dec-07 12:58N 35°01' E 136°51'0 0.0
2017-Dec-07 12:28N 35°01' E 136°51'0 0.0
2017-Dec-07 11:58N 35°01' E 136°51'0 0.0
2017-Dec-07 11:28N 35°01' E 136°51'0 0.0
2017-Dec-07 10:58N 35°01' E 136°51'0 0.0
2017-Dec-07 10:28N 35°01' E 136°51'0 0.0
2017-Dec-07 09:58N 35°01' E 136°51'0 0.0
2017-Dec-07 09:28N 35°01' E 136°51'0 0.0
2017-Dec-07 08:58N 35°01' E 136°51'0 0.0
2017-Dec-07 08:28N 35°01' E 136°51'0 0.2
2017-Dec-07 08:00N 35°01' E 136°51'2 4.7
2017-Dec-07 07:30N 35°01' E 136°48'3 6.8
2017-Dec-07 07:00N 34°57' E 136°46'2 4.7
2017-Dec-07 06:30N 34°55' E 136°47'4 7.4
2017-Dec-07 06:00N 34°51' E 136°47'4 7.1
2017-Dec-07 05:29N 34°48' E 136°48'3 7.0
2017-Dec-07 05:00N 34°45' E 136°50'  
2017-Dec-04 10:23N 34°39' E 135°28'0 0.0
2017-Dec-04 09:59N 34°39' E 135°28'0 0.0
2017-Dec-04 09:29N 34°39' E 135°28'0 0.0
2017-Dec-04 08:59N 34°39' E 135°28'0 0.0
2017-Dec-04 08:29N 34°39' E 135°28'0 0.0
2017-Dec-04 07:59N 34°39' E 135°28'0 0.0
2017-Dec-04 07:29N 34°39' E 135°28'0 0.0
2017-Dec-04 06:59N 34°39' E 135°28'0 0.0
2017-Dec-04 06:29N 34°39' E 135°28'0 0.0
2017-Dec-04 05:59N 34°39' E 135°28'0 0.0
2017-Dec-04 05:29N 34°39' E 135°28'0 0.0
2017-Dec-04 04:56N 34°39' E 135°28'0 0.0
2017-Dec-04 04:29N 34°39' E 135°28'0 0.0
2017-Dec-04 03:50N 34°39' E 135°28'0 0.0
2017-Dec-04 03:26N 34°39' E 135°28'0 0.0
2017-Dec-04 02:59N 34°39' E 135°28'0 0.0
2017-Dec-04 02:26N 34°39' E 135°28'0 0.0
2017-Dec-04 01:53N 34°39' E 135°28'0 0.0
2017-Dec-04 01:29N 34°39' E 135°28'0 0.0
2017-Dec-04 00:59N 34°39' E 135°28'0 0.0
2017-Dec-04 00:29N 34°39' E 135°28'0 0.0
2017-Dec-03 23:56N 34°39' E 135°28'0 0.0
2017-Dec-03 23:29N 34°39' E 135°28'0 0.1
2017-Dec-03 22:59N 34°39' E 135°28'0 0.1
2017-Dec-03 22:29N 34°39' E 135°28'0 0.0
2017-Dec-03 21:59N 34°39' E 135°28'0 0.0
2017-Dec-03 21:29N 34°39' E 135°28'0 0.0
2017-Dec-03 20:59N 34°39' E 135°28'0 0.0
2017-Dec-03 20:29N 34°39' E 135°28'0 0.0
2017-Dec-03 19:59N 34°39' E 135°28'0 0.0
2017-Dec-03 19:29N 34°39' E 135°28'0 0.0
2017-Dec-03 18:59N 34°39' E 135°28'0 0.0
2017-Dec-03 18:29N 34°39' E 135°28'0 0.0
2017-Dec-03 17:59N 34°39' E 135°28'0 0.0
2017-Dec-03 17:29N 34°39' E 135°28'0 0.0
2017-Dec-03 16:59N 34°39' E 135°28'0 0.0
2017-Dec-03 16:29N 34°39' E 135°28'0 0.0
2017-Dec-03 15:59N 34°39' E 135°28'0 0.0
2017-Dec-03 15:29N 34°39' E 135°28'0 0.0
2017-Dec-03 14:59N 34°39' E 135°28'0 0.0
2017-Dec-03 14:29N 34°39' E 135°28'0 0.0
2017-Dec-03 13:59N 34°39' E 135°28'0 0.0
2017-Dec-03 13:29N 34°39' E 135°28'0 0.0
2017-Dec-03 12:59N 34°39' E 135°28'0 0.0
2017-Dec-03 12:26N 34°39' E 135°28'0 0.0
2017-Dec-03 11:59N 34°39' E 135°28'0 0.0
2017-Dec-03 11:23N 34°39' E 135°28'0 0.0
2017-Dec-03 10:59N 34°39' E 135°28'0 0.0
2017-Dec-03 10:29N 34°39' E 135°28'0 0.0
2017-Dec-03 09:56N 34°39' E 135°28'0 0.0
2017-Dec-03 09:29N 34°39' E 135°28'0 0.0
2017-Dec-03 08:59N 34°39' E 135°28'0 0.0
2017-Dec-03 08:29N 34°39' E 135°28'0 0.0
2017-Dec-03 07:59N 34°39' E 135°28'0 0.0
2017-Dec-03 07:29N 34°39' E 135°28'0 0.0
2017-Dec-03 06:59N 34°39' E 135°28'0 0.0
2017-Dec-03 06:29N 34°39' E 135°28'0 0.0
2017-Dec-03 05:59N 34°39' E 135°28'0 0.0
2017-Dec-03 05:29N 34°39' E 135°28'0 0.0
2017-Dec-03 04:59N 34°39' E 135°28'0 0.0
2017-Dec-03 04:29N 34°39' E 135°28'0 0.0
2017-Dec-03 03:59N 34°39' E 135°28'0 0.0
2017-Dec-03 03:29N 34°39' E 135°28'0 0.0
2017-Dec-03 02:59N 34°39' E 135°28'0 0.0
2017-Dec-03 02:29N 34°39' E 135°28'0 0.0
2017-Dec-03 01:59N 34°39' E 135°28'0 0.0
2017-Dec-03 01:26N 34°39' E 135°28'0 0.0
2017-Dec-03 00:59N 34°39' E 135°28'0 0.0
2017-Dec-03 00:29N 34°39' E 135°28'0 0.0
2017-Dec-02 23:59N 34°39' E 135°28'0 0.0
2017-Dec-02 23:29N 34°39' E 135°28'0 0.0
2017-Dec-02 22:59N 34°39' E 135°28'0 0.0
2017-Dec-02 22:29N 34°39' E 135°28'0 0.0
2017-Dec-02 21:59N 34°39' E 135°28'0 0.0
2017-Dec-02 21:29N 34°39' E 135°28'0 0.0
2017-Dec-02 20:59N 34°39' E 135°28'0 0.0
2017-Dec-02 20:29N 34°39' E 135°28'0 0.0
2017-Dec-02 19:59N 34°39' E 135°28'0 0.0
2017-Dec-02 19:29N 34°39' E 135°28'0 0.0
2017-Dec-02 18:59N 34°39' E 135°28'0 0.0
2017-Dec-02 18:29N 34°39' E 135°28'0 0.0
2017-Dec-02 17:59N 34°39' E 135°28'0 0.0
2017-Dec-02 17:29N 34°39' E 135°28'0 0.0
2017-Dec-02 16:59N 34°39' E 135°28'0 0.0
2017-Dec-02 16:29N 34°39' E 135°28'0 0.0
2017-Dec-02 15:59N 34°39' E 135°28'0 0.0
2017-Dec-02 15:29N 34°39' E 135°28'0 0.0
2017-Dec-02 14:59N 34°39' E 135°28'0 0.0
2017-Dec-02 14:26N 34°39' E 135°28'0 0.0
2017-Dec-02 13:59N 34°39' E 135°28'0 0.0
2017-Dec-02 13:29N 34°39' E 135°28'0 0.0
2017-Dec-02 12:59N 34°39' E 135°28'0 0.0
2017-Dec-02 12:29N 34°39' E 135°28'0 0.0
2017-Dec-02 11:59N 34°39' E 135°28'0 0.0
2017-Dec-02 11:29N 34°39' E 135°28'0 0.0
2017-Dec-02 10:59N 34°39' E 135°28'0 0.0
2017-Dec-02 10:29N 34°39' E 135°28'0 0.0
2017-Dec-02 09:59N 34°39' E 135°28'0 0.0
2017-Dec-02 09:29N 34°39' E 135°28'0 0.0
2017-Dec-02 08:59N 34°39' E 135°28'0 0.0
2017-Dec-02 08:29N 34°39' E 135°28'0 0.0
2017-Dec-02 07:56N 34°39' E 135°28'0 0.0
2017-Dec-02 07:29N 34°39' E 135°28'0 0.0
2017-Dec-02 06:56N 34°39' E 135°28'0 0.0
2017-Dec-02 06:29N 34°39' E 135°28'0 0.0
2017-Dec-02 05:59N 34°39' E 135°28'0 0.0
2017-Dec-02 05:29N 34°39' E 135°28'0 0.0
2017-Dec-02 04:59N 34°39' E 135°28'0 0.0
2017-Dec-02 04:29N 34°39' E 135°28'0 0.0
2017-Dec-02 03:56N 34°39' E 135°28'0 0.0
2017-Dec-02 03:26N 34°39' E 135°28'0 0.0
2017-Dec-02 02:59N 34°39' E 135°28'0 0.0
2017-Dec-02 02:29N 34°39' E 135°28'0 0.0
2017-Dec-02 01:59N 34°39' E 135°28'0 0.0
2017-Dec-02 01:26N 34°39' E 135°28'0 0.0
2017-Dec-02 00:56N 34°39' E 135°28'0 0.0
2017-Dec-02 00:26N 34°39' E 135°28'0 0.0
2017-Dec-01 23:59N 34°39' E 135°28'0 0.0
2017-Dec-01 23:29N 34°39' E 135°28'0 0.0
2017-Dec-01 22:59N 34°39' E 135°28'0 0.0
2017-Dec-01 22:29N 34°39' E 135°28'0 0.0
2017-Dec-01 21:59N 34°39' E 135°28'0 0.0
2017-Dec-01 21:29N 34°39' E 135°28'0 0.0
2017-Dec-01 20:59N 34°39' E 135°28'0 0.0
2017-Dec-01 20:29N 34°39' E 135°28'0 0.0
2017-Dec-01 19:59N 34°39' E 135°28'0 0.0
2017-Dec-01 19:29N 34°39' E 135°28'0 0.0
2017-Dec-01 18:59N 34°39' E 135°28'0 0.0
2017-Dec-01 18:29N 34°39' E 135°28'0 0.0
2017-Dec-01 17:59N 34°39' E 135°28'0 0.0
2017-Dec-01 17:29N 34°39' E 135°28'0 0.0
2017-Dec-01 16:59N 34°39' E 135°28'0 0.0
2017-Dec-01 16:29N 34°39' E 135°28'0 0.0
2017-Dec-01 15:59N 34°39' E 135°28'0 0.0
2017-Dec-01 15:29N 34°39' E 135°28'0 0.0
2017-Dec-01 14:59N 34°39' E 135°28'0 0.0
2017-Dec-01 14:29N 34°39' E 135°28'0 0.0
2017-Dec-01 13:59N 34°39' E 135°28'0 0.0
2017-Dec-01 13:29N 34°39' E 135°28'0 0.0
2017-Dec-01 12:59N 34°39' E 135°28'0 0.0
2017-Dec-01 12:29N 34°39' E 135°28'0 0.0
2017-Dec-01 11:59N 34°39' E 135°28'0 0.0
2017-Dec-01 11:29N 34°39' E 135°28'0 0.0
2017-Dec-01 10:59N 34°39' E 135°28'0 0.0
2017-Dec-01 10:29N 34°39' E 135°28'0 0.0
2017-Dec-01 09:59N 34°39' E 135°28'0 0.0
2017-Dec-01 09:29N 34°39' E 135°28'0 0.0
2017-Dec-01 08:59N 34°39' E 135°28'0 0.0
2017-Dec-01 08:29N 34°39' E 135°28'0 0.0
2017-Dec-01 07:59N 34°39' E 135°28'0 0.0
2017-Dec-01 07:26N 34°39' E 135°28'0 0.0
2017-Dec-01 06:59N 34°39' E 135°28'0 0.0
2017-Dec-01 06:29N 34°39' E 135°28'0 0.0
2017-Dec-01 05:59N 34°39' E 135°28'0 0.0
2017-Dec-01 05:29N 34°39' E 135°28'0 0.0
2017-Dec-01 04:56N 34°39' E 135°28'0 0.0
2017-Dec-01 04:29N 34°39' E 135°28'0 0.0
2017-Dec-01 03:59N 34°39' E 135°28'0 0.0
2017-Dec-01 03:28N 34°39' E 135°28'0 0.0
2017-Dec-01 02:59N 34°39' E 135°28'0 0.0
2017-Dec-01 02:29N 34°39' E 135°28'0 0.3
2017-Dec-01 02:00N 34°39' E 135°28'1 2.5
2017-Dec-01 01:30N 34°40' E 135°27'0 0.6
2017-Dec-01 01:00N 34°40' E 135°27'0 0.7
2017-Dec-01 00:28N 34°40' E 135°27'0 0.8
2017-Dec-01 00:00N 34°40' E 135°27'0 0.0
2017-Nov-30 23:30N 34°40' E 135°27'0 0.0
2017-Nov-30 23:00N 34°40' E 135°27'0 0.6
2017-Nov-30 22:28N 34°40' E 135°27'0 0.0
2017-Nov-30 21:58N 34°40' E 135°27'2 3.8
2017-Nov-30 21:30N 34°39' E 135°26'1 2.0
2017-Nov-30 20:55N 34°39' E 135°28'0 0.0
2017-Nov-30 20:28N 34°39' E 135°28'0 0.0
2017-Nov-30 19:58N 34°39' E 135°28'0 0.0
2017-Nov-30 19:25N 34°39' E 135°28'0 0.0
2017-Nov-30 18:58N 34°39' E 135°28'0 0.0
2017-Nov-30 18:28N 34°39' E 135°28'0 0.0
2017-Nov-30 17:58N 34°39' E 135°28'0 0.0
2017-Nov-30 17:19N 34°39' E 135°28'0 0.0
2017-Nov-30 16:55N 34°39' E 135°28'0 0.0
2017-Nov-30 16:25N 34°39' E 135°28'0 0.0
2017-Nov-30 15:58N 34°39' E 135°28'0 0.0
2017-Nov-30 15:25N 34°39' E 135°28'0 0.0
2017-Nov-30 14:58N 34°39' E 135°28'0 0.0
2017-Nov-30 14:28N 34°39' E 135°28'0 0.0
2017-Nov-30 13:55N 34°39' E 135°28'0 0.0
2017-Nov-30 13:25N 34°39' E 135°28'0 0.0
2017-Nov-30 12:55N 34°39' E 135°28'0 0.0
2017-Nov-30 12:25N 34°39' E 135°28'0 0.0
2017-Nov-30 11:49N 34°39' E 135°28'0 0.0
2017-Nov-30 11:25N 34°39' E 135°28'0 0.0
2017-Nov-30 10:58N 34°39' E 135°28'0 0.0
2017-Nov-30 10:25N 34°39' E 135°28'0 0.0
2017-Nov-30 09:55N 34°39' E 135°28'0 0.0
2017-Nov-30 09:28N 34°39' E 135°28'0 0.0
2017-Nov-30 08:55N 34°39' E 135°28'0 0.0
2017-Nov-30 08:28N 34°39' E 135°28'0 0.0
2017-Nov-30 07:58N 34°39' E 135°28'0 0.0
2017-Nov-30 07:25N 34°39' E 135°28'0 0.0
2017-Nov-30 06:58N 34°39' E 135°28'  

Dump ship's entire track history